createdAt,value
2022-11-01T00:02:12.402Z,16.70
2022-11-01T00:04:39.862Z,16.70
2022-11-01T00:07:06.882Z,16.80
2022-11-01T00:09:33.719Z,16.80
2022-11-01T00:12:01.183Z,16.80
2022-11-01T00:14:28.126Z,16.80
2022-11-01T00:16:55.143Z,16.80
2022-11-01T00:19:22.144Z,16.80
2022-11-01T00:21:49.042Z,16.90
2022-11-01T00:24:15.978Z,16.80
2022-11-01T00:26:43.144Z,16.80
2022-11-01T00:29:12.087Z,16.80
2022-11-01T00:31:38.932Z,16.90
2022-11-01T00:34:06.805Z,16.80
2022-11-01T00:36:35.540Z,16.90
2022-11-01T00:39:04.764Z,16.90
2022-11-01T00:41:32.051Z,16.90
2022-11-01T00:43:58.872Z,16.90
2022-11-01T00:46:26.184Z,16.90
2022-11-01T00:48:53.126Z,16.90
2022-11-01T00:51:19.991Z,16.90
2022-11-01T00:53:46.758Z,16.90
2022-11-01T00:56:13.990Z,17.00
2022-11-01T00:58:40.808Z,16.90
2022-11-01T01:01:08.258Z,16.90
2022-11-01T01:03:35.795Z,16.90
2022-11-01T01:06:02.777Z,16.90
2022-11-01T01:08:29.598Z,16.90
2022-11-01T01:10:56.928Z,16.90
2022-11-01T01:13:23.809Z,16.90
2022-11-01T01:15:50.725Z,16.90
2022-11-01T01:18:18.318Z,16.90
2022-11-01T01:20:45.345Z,16.90
2022-11-01T01:23:12.189Z,17.00
2022-11-01T01:25:41.463Z,16.90
2022-11-01T01:28:09.005Z,16.90
2022-11-01T01:30:39.993Z,16.90
2022-11-01T01:33:07.200Z,16.90
2022-11-01T01:35:34.065Z,16.80
2022-11-01T01:38:01.337Z,16.90
2022-11-01T01:40:28.667Z,16.80
2022-11-01T01:42:55.596Z,16.80
2022-11-01T01:45:36.483Z,16.80
2022-11-01T01:48:35.383Z,16.80
2022-11-01T01:51:07.414Z,16.80
2022-11-01T01:53:45.614Z,16.80
2022-11-01T01:56:27.306Z,16.70
2022-11-01T01:59:08.219Z,16.70
2022-11-01T02:01:40.508Z,16.60
2022-11-01T02:04:36.418Z,16.50
2022-11-01T02:07:03.758Z,16.50
2022-11-01T02:09:31.810Z,16.50
2022-11-01T02:11:58.828Z,16.40
2022-11-01T02:14:26.571Z,16.30
2022-11-01T02:17:10.577Z,16.30
2022-11-01T02:20:24.639Z,16.20
2022-11-01T02:23:26.265Z,16.20
2022-11-01T02:26:44.627Z,16.10
2022-11-01T02:29:40.590Z,16.10
2022-11-01T02:32:18.087Z,16.00
2022-11-01T02:35:12.522Z,16.00
2022-11-01T02:38:02.839Z,16.00
2022-11-01T02:40:47.260Z,15.90
2022-11-01T02:43:49.231Z,15.90
2022-11-01T02:46:38.307Z,15.80
2022-11-01T02:49:07.295Z,15.80
2022-11-01T02:51:36.209Z,15.80
2022-11-01T02:54:08.746Z,15.70
2022-11-01T02:56:37.607Z,15.70
2022-11-01T02:59:06.246Z,15.70
2022-11-01T03:01:36.121Z,15.70
2022-11-01T03:04:03.623Z,15.70
2022-11-01T03:06:40.638Z,15.60
2022-11-01T03:09:11.913Z,15.60
2022-11-01T03:11:57.225Z,15.60
2022-11-01T03:14:42.953Z,15.60
2022-11-01T03:17:21.228Z,15.50
2022-11-01T03:20:05.270Z,15.50
2022-11-01T03:22:47.364Z,15.50
2022-11-01T03:25:40.439Z,15.50
2022-11-01T03:28:25.362Z,15.50
2022-11-01T03:31:13.687Z,15.40
2022-11-01T03:33:47.953Z,15.40
2022-11-01T03:36:20.006Z,15.40
2022-11-01T03:38:57.821Z,15.40
2022-11-01T03:41:26.748Z,15.30
2022-11-01T03:43:54.699Z,15.30
2022-11-01T03:46:22.027Z,15.30
2022-11-01T03:48:48.792Z,15.30
2022-11-01T03:51:15.857Z,15.30
2022-11-01T03:53:42.768Z,15.20
2022-11-01T03:56:09.739Z,15.20
2022-11-01T03:58:42.205Z,15.20
2022-11-01T04:01:10.754Z,15.20
2022-11-01T04:03:38.155Z,15.20
2022-11-01T04:06:06.516Z,15.20
2022-11-01T04:08:34.272Z,15.10
2022-11-01T04:11:01.182Z,15.10
2022-11-01T04:13:28.074Z,15.10
2022-11-01T04:16:14.043Z,15.10
2022-11-01T04:18:59.518Z,15.10
2022-11-01T04:21:26.858Z,15.20
2022-11-01T04:23:53.796Z,15.10
2022-11-01T04:26:23.630Z,15.20
2022-11-01T04:28:57.437Z,15.20
2022-11-01T04:31:34.602Z,15.20
2022-11-01T04:34:03.923Z,15.20
2022-11-01T04:36:30.842Z,15.20
2022-11-01T04:38:58.498Z,15.20
2022-11-01T04:41:28.743Z,15.10
2022-11-01T04:43:59.644Z,15.10
2022-11-01T04:46:31.023Z,15.10
2022-11-01T04:48:57.879Z,15.10
2022-11-01T04:51:24.926Z,15.10
2022-11-01T04:53:52.997Z,15.10
2022-11-01T04:56:19.829Z,15.10
2022-11-01T04:58:46.988Z,15.40
2022-11-01T05:01:14.934Z,15.10
2022-11-01T05:03:43.046Z,15.10
2022-11-01T05:06:10.353Z,15.10
2022-11-01T05:08:37.771Z,15.10
2022-11-01T05:11:04.810Z,15.10
2022-11-01T05:13:31.868Z,15.10
2022-11-01T05:16:18.353Z,15.10
2022-11-01T05:18:45.952Z,15.10
2022-11-01T05:21:12.817Z,15.10
2022-11-01T05:23:39.664Z,15.10
2022-11-01T05:26:06.466Z,15.10
2022-11-01T05:28:34.582Z,15.10
2022-11-01T05:31:01.496Z,15.10
2022-11-01T05:33:28.412Z,15.10
2022-11-01T05:35:55.433Z,15.10
2022-11-01T05:38:22.368Z,15.10
2022-11-01T05:40:49.179Z,15.10
2022-11-01T05:43:16.248Z,15.10
2022-11-01T05:45:43.083Z,15.00
2022-11-01T05:48:11.806Z,15.00
2022-11-01T05:50:38.838Z,15.00
2022-11-01T05:53:10.120Z,15.00
2022-11-01T05:55:37.732Z,14.90
2022-11-01T05:58:05.546Z,14.90
2022-11-01T06:00:33.715Z,14.90
2022-11-01T06:03:01.233Z,14.90
2022-11-01T06:05:29.796Z,14.80
2022-11-01T06:07:57.492Z,14.80
2022-11-01T06:10:24.609Z,14.80
2022-11-01T06:12:52.168Z,14.80
2022-11-01T06:15:19.109Z,14.80
2022-11-01T06:17:45.932Z,14.80
2022-11-01T06:20:13.276Z,14.80
2022-11-01T06:22:40.567Z,14.80
2022-11-01T06:25:08.133Z,14.70
2022-11-01T06:27:34.977Z,14.80
2022-11-01T06:30:01.950Z,14.80
2022-11-01T06:32:28.796Z,14.80
2022-11-01T06:34:55.937Z,14.80
2022-11-01T06:37:23.101Z,14.80
2022-11-01T06:39:50.493Z,14.80
2022-11-01T06:42:17.468Z,14.90
2022-11-01T06:44:44.350Z,14.90
2022-11-01T06:47:14.155Z,14.90
2022-11-01T06:49:41.692Z,15.00
2022-11-01T06:52:08.720Z,15.00
2022-11-01T06:54:35.728Z,15.10
2022-11-01T06:57:02.638Z,15.10
2022-11-01T06:59:29.511Z,15.20
2022-11-01T07:01:56.483Z,15.20
2022-11-01T07:04:23.780Z,15.30
2022-11-01T07:06:50.564Z,15.40
2022-11-01T07:09:17.536Z,15.50
2022-11-01T07:11:44.522Z,15.50
2022-11-01T07:14:11.460Z,15.60
2022-11-01T07:16:38.952Z,15.70
2022-11-01T07:19:06.353Z,15.70
2022-11-01T07:21:33.397Z,15.80
2022-11-01T07:24:00.418Z,15.90
2022-11-01T07:26:27.281Z,16.00
2022-11-01T07:28:54.104Z,16.00
2022-11-01T07:31:21.294Z,16.10
2022-11-01T07:33:48.820Z,16.20
2022-11-01T07:36:16.577Z,16.30
2022-11-01T07:38:43.658Z,16.30
2022-11-01T07:41:11.204Z,16.40
2022-11-01T07:43:39.566Z,16.40
2022-11-01T07:46:07.405Z,16.40
2022-11-01T07:48:37.080Z,16.50
2022-11-01T07:51:06.616Z,16.60
2022-11-01T07:53:34.447Z,16.60
2022-11-01T07:56:02.160Z,16.60
2022-11-01T07:58:29.293Z,16.70
2022-11-01T08:00:56.567Z,16.70
2022-11-01T08:03:24.219Z,16.80
2022-11-01T08:05:51.165Z,16.80
2022-11-01T08:08:18.470Z,16.90
2022-11-01T08:10:46.352Z,17.00
2022-11-01T08:13:25.226Z,17.00
2022-11-01T08:15:53.523Z,17.10
2022-11-01T08:18:23.145Z,17.10
2022-11-01T08:20:51.520Z,17.20
2022-11-01T08:23:19.128Z,17.20
2022-11-01T08:25:46.902Z,17.30
2022-11-01T08:28:19.124Z,17.40
2022-11-01T08:30:48.830Z,17.50
2022-11-01T08:33:15.763Z,17.60
2022-11-01T08:35:49.778Z,17.70
2022-11-01T08:38:18.176Z,17.90
2022-11-01T08:40:44.983Z,18.00
2022-11-01T08:43:11.799Z,18.10
2022-11-01T08:45:38.960Z,18.30
2022-11-01T08:48:06.452Z,18.40
2022-11-01T08:50:35.230Z,18.50
2022-11-01T08:53:07.632Z,18.70
2022-11-01T08:55:37.861Z,18.80
2022-11-01T08:58:06.311Z,19.00
2022-11-01T09:00:33.691Z,19.10
2022-11-01T09:03:00.615Z,19.30
2022-11-01T09:05:29.657Z,19.40
2022-11-01T09:07:58.945Z,19.60
2022-11-01T09:10:26.024Z,19.70
2022-11-01T09:12:52.961Z,19.80
2022-11-01T09:15:19.856Z,20.00
2022-11-01T09:17:46.715Z,20.20
2022-11-01T09:20:15.113Z,20.40
2022-11-01T09:22:42.261Z,20.60
2022-11-01T09:25:09.854Z,20.90
2022-11-01T09:27:37.447Z,21.10
2022-11-01T09:30:06.051Z,21.20
2022-11-01T09:32:32.957Z,21.40
2022-11-01T09:35:00.781Z,21.50
2022-11-01T09:37:27.884Z,21.80
2022-11-01T09:39:54.736Z,21.90
2022-11-01T09:42:32.596Z,22.20
2022-11-01T09:45:09.476Z,22.30
2022-11-01T09:47:37.576Z,22.40
2022-11-01T09:50:43.876Z,22.40
2022-11-01T09:53:21.356Z,22.50
2022-11-01T09:56:35.363Z,22.40
2022-11-01T09:59:34.169Z,22.30
2022-11-01T10:02:26.300Z,22.40
2022-11-01T10:05:34.253Z,22.30
2022-11-01T10:08:35.882Z,22.30
2022-11-01T10:11:29.861Z,22.30
2022-11-01T10:14:39.181Z,22.10
2022-11-01T10:17:36.229Z,22.00
2022-11-01T10:20:04.561Z,21.90
2022-11-01T10:22:35.310Z,21.80
2022-11-01T10:25:11.092Z,21.80
2022-11-01T10:28:10.266Z,21.70
2022-11-01T10:30:48.195Z,21.60
2022-11-01T10:33:35.518Z,21.60
2022-11-01T10:36:21.805Z,21.60
2022-11-01T10:42:16.749Z,21.50
2022-11-01T10:44:54.687Z,21.40
2022-11-01T10:47:24.351Z,21.40
2022-11-01T10:50:06.039Z,21.40
2022-11-01T10:52:50.246Z,21.40
2022-11-01T10:55:42.628Z,21.40
2022-11-01T10:58:28.128Z,21.40
2022-11-01T11:00:55.158Z,21.40
2022-11-01T11:03:26.753Z,21.40
2022-11-01T11:05:55.735Z,21.40
2022-11-01T11:08:24.444Z,21.50
2022-11-01T11:10:51.975Z,21.60
2022-11-01T11:13:24.460Z,21.60
2022-11-01T11:15:55.872Z,21.70
2022-11-01T11:18:29.698Z,22.00
2022-11-01T11:21:08.948Z,22.30
2022-11-01T11:23:46.048Z,22.60
2022-11-01T11:26:17.381Z,23.00
2022-11-01T11:28:57.079Z,23.40
2022-11-01T11:31:34.062Z,23.70
2022-11-01T11:34:27.603Z,24.00
2022-11-01T11:36:55.711Z,24.10
2022-11-01T11:39:37.804Z,24.30
2022-11-01T11:42:19.211Z,24.20
2022-11-01T11:44:55.587Z,24.20
2022-11-01T11:47:26.679Z,24.10
2022-11-01T11:49:54.693Z,24.00
2022-11-01T11:52:38.346Z,23.90
2022-11-01T11:55:45.724Z,23.80
2022-11-01T11:58:27.766Z,23.70
2022-11-01T12:01:06.886Z,23.40
2022-11-01T12:03:49.656Z,23.50
2022-11-01T12:06:26.098Z,23.30
2022-11-01T12:09:00.601Z,23.30
2022-11-01T12:11:46.427Z,23.10
2022-11-01T12:14:24.265Z,23.00
2022-11-01T12:16:51.951Z,22.90
2022-11-01T12:19:26.051Z,22.80
2022-11-01T12:21:54.855Z,22.70
2022-11-01T12:24:47.700Z,22.60
2022-11-01T12:27:20.987Z,22.50
2022-11-01T12:30:10.620Z,22.20
2022-11-01T12:33:03.209Z,22.10
2022-11-01T12:35:41.381Z,21.80
2022-11-01T12:38:33.919Z,21.90
2022-11-01T12:41:26.125Z,21.80
2022-11-01T12:44:30.497Z,21.70
2022-11-01T12:47:08.372Z,21.60
2022-11-01T12:49:38.287Z,21.60
2022-11-01T12:52:33.517Z,21.50
2022-11-01T12:55:15.338Z,21.40
2022-11-01T12:57:45.471Z,21.40
2022-11-01T13:00:18.718Z,21.30
2022-11-01T13:03:16.800Z,21.30
2022-11-01T13:05:52.323Z,21.20
2022-11-01T13:08:46.390Z,21.20
2022-11-01T13:11:40.326Z,21.20
2022-11-01T13:14:33.003Z,21.20
2022-11-01T13:17:21.519Z,21.20
2022-11-01T13:20:29.725Z,21.10
2022-11-01T13:23:38.003Z,21.20
2022-11-01T13:26:24.627Z,21.20
2022-11-01T13:32:26.199Z,21.30
2022-11-01T13:35:35.314Z,21.40
2022-11-01T13:38:27.701Z,21.60
2022-11-01T13:41:36.337Z,21.70
2022-11-01T13:44:14.348Z,21.90
2022-11-01T13:47:27.931Z,22.10
2022-11-01T13:50:16.485Z,22.20
2022-11-01T13:52:55.707Z,22.30
2022-11-01T13:55:37.991Z,22.50
2022-11-01T13:58:12.463Z,22.40
2022-11-01T14:00:55.599Z,22.50
2022-11-01T14:03:30.558Z,22.50
2022-11-01T14:06:24.198Z,22.50
2022-11-01T14:09:23.482Z,22.20
2022-11-01T14:12:11.440Z,22.40
2022-11-01T14:14:47.703Z,22.40
2022-11-01T14:17:20.773Z,22.30
2022-11-01T14:20:11.008Z,22.20
2022-11-01T14:22:39.903Z,22.10
2022-11-01T14:25:13.317Z,22.10
2022-11-01T14:27:48.801Z,22.00
2022-11-01T14:30:25.288Z,21.80
2022-11-01T14:33:15.939Z,21.90
2022-11-01T14:35:52.120Z,21.90
2022-11-01T14:38:35.755Z,22.10
2022-11-01T14:41:04.718Z,21.90
2022-11-01T14:43:52.579Z,21.90
2022-11-01T14:46:26.960Z,21.80
2022-11-01T14:49:19.198Z,21.80
2022-11-01T14:52:03.330Z,21.80
2022-11-01T14:55:03.999Z,21.80
2022-11-01T14:57:34.098Z,21.80
2022-11-01T15:00:30.640Z,21.70
2022-11-01T15:05:32.288Z,21.70
2022-11-01T15:07:59.795Z,21.70
2022-11-01T15:10:28.067Z,21.70
2022-11-01T15:12:59.156Z,21.90
2022-11-01T15:15:33.976Z,21.60
2022-11-01T15:18:17.703Z,21.60
2022-11-01T15:20:50.203Z,21.50
2022-11-01T15:23:32.400Z,21.40
2022-11-01T15:26:06.615Z,21.40
2022-11-01T15:28:40.550Z,21.00
2022-11-01T15:31:09.927Z,21.20
2022-11-01T15:33:37.434Z,21.00
2022-11-01T15:36:17.034Z,21.10
2022-11-01T15:38:56.329Z,20.90
2022-11-01T15:41:33.636Z,20.80
2022-11-01T15:44:06.954Z,20.70
2022-11-01T15:46:39.990Z,20.60
2022-11-01T15:49:17.833Z,20.50
2022-11-01T15:51:54.606Z,20.40
2022-11-01T15:54:32.045Z,20.40
2022-11-01T15:57:04.770Z,20.30
2022-11-01T16:00:06.638Z,20.20
2022-11-01T16:02:47.961Z,20.10
2022-11-01T16:05:24.059Z,20.00
2022-11-01T16:07:52.607Z,19.90
2022-11-01T16:10:30.928Z,19.90
2022-11-01T16:13:00.352Z,19.50
2022-11-01T16:15:33.717Z,19.70
2022-11-01T16:18:03.045Z,19.60
2022-11-01T16:20:30.516Z,19.50
2022-11-01T16:23:00.952Z,19.40
2022-11-01T16:25:32.868Z,19.30
2022-11-01T16:28:40.333Z,19.20
2022-11-01T16:31:23.232Z,19.10
2022-11-01T16:33:50.751Z,19.10
2022-11-01T16:36:20.637Z,19.30
2022-11-01T16:38:53.030Z,19.00
2022-11-01T16:41:26.645Z,18.80
2022-11-01T16:44:03.296Z,18.80
2022-11-01T16:46:30.317Z,18.80
2022-11-01T16:49:08.059Z,18.70
2022-11-01T16:51:35.149Z,18.90
2022-11-01T16:54:02.343Z,18.40
2022-11-01T16:56:38.334Z,18.50
2022-11-01T16:59:27.752Z,18.30
2022-11-01T17:01:58.077Z,18.40
2022-11-01T17:04:27.052Z,18.30
2022-11-01T17:06:55.845Z,18.20
2022-11-01T17:09:23.093Z,18.40
2022-11-01T17:11:51.707Z,18.10
2022-11-01T17:14:21.304Z,18.10
2022-11-01T17:16:51.980Z,18.20
2022-11-01T17:19:32.223Z,18.00
2022-11-01T17:22:11.644Z,18.00
2022-11-01T17:24:39.185Z,17.90
2022-11-01T17:27:06.698Z,17.90
2022-11-01T17:29:34.359Z,17.90
2022-11-01T17:32:02.834Z,18.10
2022-11-01T17:34:30.151Z,17.90
2022-11-01T17:36:57.615Z,18.10
2022-11-01T17:39:28.331Z,17.80
2022-11-01T17:41:56.290Z,17.70
2022-11-01T17:44:23.368Z,17.70
2022-11-01T17:46:50.385Z,17.70
2022-11-01T17:49:21.318Z,17.70
2022-11-01T17:51:54.138Z,17.70
2022-11-01T17:54:23.437Z,17.70
2022-11-01T17:56:51.395Z,17.50
2022-11-01T17:59:18.914Z,17.50
2022-11-01T18:01:45.944Z,17.30
2022-11-01T18:04:13.268Z,17.50
2022-11-01T18:06:43.915Z,17.40
2022-11-01T18:09:24.480Z,17.70
2022-11-01T18:12:13.893Z,17.40
2022-11-01T18:14:55.978Z,17.30
2022-11-01T18:17:49.047Z,17.30
2022-11-01T18:20:57.434Z,17.20
2022-11-01T18:23:25.541Z,17.20
2022-11-01T18:25:52.525Z,17.10
2022-11-01T18:28:26.569Z,17.10
2022-11-01T18:31:06.454Z,17.00
2022-11-01T18:34:07.182Z,17.00
2022-11-01T18:36:54.195Z,17.00
2022-11-01T18:39:42.891Z,16.90
2022-11-01T18:42:10.568Z,16.90
2022-11-01T18:44:38.922Z,16.80
2022-11-01T18:47:30.236Z,16.80
2022-11-01T18:49:59.931Z,16.90
2022-11-01T18:52:27.426Z,16.80
2022-11-01T18:54:56.854Z,16.70
2022-11-01T18:57:24.509Z,16.70
2022-11-01T18:59:53.680Z,16.80
2022-11-01T19:02:27.971Z,16.60
2022-11-01T19:05:18.216Z,16.50
2022-11-01T19:08:10.201Z,16.40
2022-11-01T19:10:41.263Z,16.60
2022-11-01T19:13:26.412Z,16.40
2022-11-01T19:15:54.407Z,16.40
2022-11-01T19:18:23.320Z,16.30
2022-11-01T19:20:53.401Z,16.20
2022-11-01T19:23:39.300Z,16.20
2022-11-01T19:26:36.138Z,16.20
2022-11-01T19:29:25.361Z,16.10
2022-11-01T19:31:58.175Z,16.30
2022-11-01T19:34:33.986Z,16.00
2022-11-01T19:37:06.457Z,16.00
2022-11-01T19:39:40.823Z,15.90
2022-11-01T19:42:33.124Z,15.80
2022-11-01T19:45:09.809Z,15.70
2022-11-01T19:47:43.378Z,15.70
2022-11-01T19:50:40.206Z,15.70
2022-11-01T19:53:29.868Z,15.60
2022-11-01T19:56:03.896Z,15.50
2022-11-01T19:58:53.943Z,15.50
2022-11-01T20:01:32.415Z,15.40
2022-11-01T20:04:15.005Z,15.30
2022-11-01T20:06:49.482Z,15.20
2022-11-01T20:09:24.300Z,15.10
2022-11-01T20:11:51.691Z,15.10
2022-11-01T20:14:18.821Z,15.10
2022-11-01T20:16:46.508Z,15.00
2022-11-01T20:19:17.390Z,15.00
2022-11-01T20:21:45.438Z,14.80
2022-11-01T20:24:14.567Z,14.80
2022-11-01T20:26:42.297Z,14.70
2022-11-01T20:29:09.678Z,14.60
2022-11-01T20:31:37.264Z,14.60
2022-11-01T20:34:04.428Z,14.60
2022-11-01T20:36:31.447Z,14.50
2022-11-01T20:38:58.459Z,14.50
2022-11-01T20:41:25.422Z,14.50
2022-11-01T20:43:52.255Z,14.40
2022-11-01T20:46:19.634Z,14.40
2022-11-01T20:48:46.506Z,14.40
2022-11-01T20:51:13.529Z,14.30
2022-11-01T20:53:41.380Z,14.30
2022-11-01T20:56:09.067Z,14.20
2022-11-01T20:58:41.863Z,14.20
2022-11-01T21:01:17.747Z,14.20
2022-11-01T21:03:45.449Z,14.20
2022-11-01T21:06:16.611Z,14.20
2022-11-01T21:08:47.317Z,14.20
2022-11-01T21:11:24.474Z,14.20
2022-11-01T21:13:52.412Z,14.20
2022-11-01T21:16:30.313Z,14.30
2022-11-01T21:19:02.237Z,14.20
2022-11-01T21:21:33.514Z,14.10
2022-11-01T21:24:20.738Z,14.20
2022-11-01T21:26:52.027Z,14.20
2022-11-01T21:29:27.102Z,14.10
2022-11-01T21:31:53.995Z,14.30
2022-11-01T21:34:26.677Z,14.10
2022-11-01T21:36:54.191Z,14.00
2022-11-01T21:39:28.226Z,14.00
2022-11-01T21:42:29.408Z,13.90
2022-11-01T21:44:57.067Z,13.90
2022-11-01T21:47:27.504Z,13.80
2022-11-01T21:49:54.861Z,13.80
2022-11-01T21:52:21.945Z,13.70
2022-11-01T21:54:49.629Z,13.70
2022-11-01T21:57:17.266Z,13.60
2022-11-01T21:59:44.596Z,13.60
2022-11-01T22:02:13.978Z,13.50
2022-11-01T22:04:41.529Z,13.50
2022-11-01T22:07:10.030Z,13.40
2022-11-01T22:09:37.932Z,13.40
2022-11-01T22:12:07.032Z,13.40
2022-11-01T22:14:34.386Z,13.30
2022-11-01T22:17:01.265Z,13.20
2022-11-01T22:19:28.306Z,13.20
2022-11-01T22:21:55.224Z,13.20
2022-11-01T22:24:23.523Z,13.10
2022-11-01T22:26:50.834Z,13.10
2022-11-01T22:29:17.915Z,13.10
2022-11-01T22:31:44.851Z,13.10
2022-11-01T22:34:12.395Z,13.10
2022-11-01T22:36:41.952Z,13.10
2022-11-01T22:39:25.098Z,13.00
2022-11-01T22:41:52.376Z,13.00
2022-11-01T22:44:26.431Z,13.00
2022-11-01T22:46:59.042Z,13.00
2022-11-01T22:49:38.053Z,13.00
2022-11-01T22:52:20.315Z,13.00
2022-11-01T22:54:48.941Z,13.00
2022-11-01T22:57:21.403Z,12.90
2022-11-01T22:59:53.915Z,12.90
2022-11-01T23:02:30.356Z,12.90
2022-11-01T23:05:06.614Z,12.90
2022-11-01T23:07:56.887Z,12.80
2022-11-01T23:10:27.432Z,12.80
2022-11-01T23:13:37.294Z,12.80
2022-11-01T23:16:24.238Z,12.80
2022-11-01T23:18:53.635Z,12.80
2022-11-01T23:21:22.517Z,12.70
2022-11-01T23:23:50.117Z,12.70
2022-11-01T23:26:18.713Z,12.70
2022-11-01T23:28:49.963Z,12.60
2022-11-01T23:31:18.082Z,12.70
2022-11-01T23:33:48.529Z,12.60
2022-11-01T23:36:37.957Z,12.50
2022-11-01T23:39:09.408Z,12.50
2022-11-01T23:41:40.872Z,12.50
2022-11-01T23:44:39.013Z,12.50
2022-11-01T23:47:37.433Z,12.50
2022-11-01T23:50:22.346Z,12.40
2022-11-01T23:53:02.483Z,12.40
2022-11-01T23:55:36.395Z,12.40
2022-11-01T23:58:07.419Z,12.40
